createdAt,value
2016-07-02T00:00:06.817Z,17.59
2016-07-02T00:00:16.819Z,17.62
2016-07-02T00:00:26.182Z,17.62
2016-07-02T00:00:36.823Z,17.59
2016-07-02T00:00:46.840Z,17.54
2016-07-02T00:00:56.842Z,17.51
2016-07-02T00:01:06.858Z,17.62
2016-07-02T00:01:16.213Z,17.63
2016-07-02T00:01:26.860Z,17.62
2016-07-02T00:01:36.861Z,17.66
2016-07-02T00:01:46.235Z,17.64
2016-07-02T00:01:56.876Z,17.58
2016-07-02T00:02:06.874Z,17.56
2016-07-02T00:02:16.887Z,17.62
2016-07-02T00:02:26.892Z,17.58
2016-07-02T00:02:36.891Z,17.55
2016-07-02T00:02:46.903Z,17.58
2016-07-02T00:02:56.903Z,17.62
2016-07-02T00:03:06.914Z,17.58
2016-07-02T00:03:16.928Z,17.56
2016-07-02T00:03:26.923Z,17.63
2016-07-02T00:03:36.937Z,17.54
2016-07-02T00:03:46.929Z,17.54
2016-07-02T00:03:56.295Z,17.56
2016-07-02T00:04:06.940Z,17.54
2016-07-02T00:04:16.943Z,17.51
2016-07-02T00:04:26.952Z,17.52
2016-07-02T00:04:36.957Z,17.56
2016-07-02T00:04:46.965Z,17.51
2016-07-02T00:04:56.970Z,17.56
2016-07-02T00:05:06.974Z,17.54
2016-07-02T00:05:16.344Z,17.55
2016-07-02T00:05:26.358Z,17.55
2016-07-02T00:05:36.993Z,17.54
2016-07-02T00:05:47.000Z,17.56
2016-07-02T00:05:57.003Z,17.63
2016-07-02T00:06:07.006Z,17.54
2016-07-02T00:06:17.014Z,17.52
2016-07-02T00:06:27.017Z,17.51
2016-07-02T00:06:36.384Z,17.54
2016-07-02T00:06:47.023Z,17.54
2016-07-02T00:06:56.399Z,17.63
2016-07-02T00:07:07.040Z,17.58
2016-07-02T00:07:17.042Z,17.54
2016-07-02T00:07:27.044Z,17.63
2016-07-02T00:07:37.055Z,17.46
2016-07-02T00:07:46.437Z,17.54
2016-07-02T00:07:57.059Z,17.51
2016-07-02T00:08:07.069Z,17.43
2016-07-02T00:08:17.076Z,17.41
2016-07-02T00:08:26.451Z,17.52
2016-07-02T00:08:37.083Z,17.48
2016-07-02T00:08:47.129Z,17.49
2016-07-02T00:08:56.458Z,17.46
2016-07-02T00:09:07.102Z,17.43
2016-07-02T00:09:17.110Z,17.41
2016-07-02T00:09:27.114Z,17.43
2016-07-02T00:09:36.476Z,17.43
2016-07-02T00:09:46.495Z,17.46
2016-07-02T00:09:57.128Z,17.37
2016-07-02T00:10:07.133Z,17.49
2016-07-02T00:10:17.142Z,17.44
2016-07-02T00:10:27.140Z,17.37
2016-07-02T00:10:37.149Z,17.38
2016-07-02T00:10:46.524Z,17.31
2016-07-02T00:10:57.160Z,17.41
2016-07-02T00:11:06.530Z,17.33
2016-07-02T00:11:17.185Z,17.36
2016-07-02T00:11:27.177Z,17.36
2016-07-02T00:11:37.185Z,17.38
2016-07-02T00:11:47.192Z,17.41
2016-07-02T00:11:57.187Z,17.43
2016-07-02T00:12:06.561Z,17.38
2016-07-02T00:12:17.204Z,17.3
2016-07-02T00:12:27.214Z,17.4
2016-07-02T00:12:37.212Z,17.43
2016-07-02T00:12:46.578Z,17.43
2016-07-02T00:12:57.226Z,17.4
2016-07-02T00:13:06.591Z,17.37
2016-07-02T00:13:17.237Z,17.36
2016-07-02T00:13:27.244Z,17.41
2016-07-02T00:13:37.249Z,17.43
2016-07-02T00:13:47.254Z,17.36
2016-07-02T00:13:56.625Z,17.43
2016-07-02T00:14:07.275Z,17.4
2016-07-02T00:14:16.633Z,17.43
2016-07-02T00:14:27.281Z,17.43
2016-07-02T00:14:37.279Z,17.34
2016-07-02T00:14:47.282Z,17.33
2016-07-02T00:14:57.296Z,17.37
2016-07-02T00:15:07.299Z,17.31
2016-07-02T00:15:17.301Z,17.25
2016-07-02T00:15:27.310Z,17.33
2016-07-02T00:15:36.677Z,17.19
2016-07-02T00:15:46.680Z,17.18
2016-07-02T00:15:56.690Z,17.22
2016-07-02T00:16:07.335Z,17.19
2016-07-02T00:16:17.333Z,17.14
2016-07-02T00:16:27.337Z,17.25
2016-07-02T00:16:37.345Z,17.22
2016-07-02T00:16:47.346Z,17.19
2016-07-02T00:16:56.723Z,17.18
2016-07-02T00:17:06.723Z,17.23
2016-07-02T00:17:16.731Z,17.15
2016-07-02T00:17:26.736Z,17.25
2016-07-02T00:17:37.381Z,17.19
2016-07-02T00:17:47.385Z,17.15
2016-07-02T00:17:57.389Z,17.21
2016-07-02T00:18:07.393Z,17.22
2016-07-02T00:18:17.400Z,17.18
2016-07-02T00:18:27.403Z,17.22
2016-07-02T00:18:37.407Z,17.19
2016-07-02T00:18:46.778Z,17.19
2016-07-02T00:18:57.423Z,17.16
2016-07-02T00:19:07.423Z,17.26
2016-07-02T00:19:17.432Z,17.08
2016-07-02T00:19:26.798Z,17.22
2016-07-02T00:19:37.455Z,17.19
2016-07-02T00:19:47.446Z,17.18
2016-07-02T00:19:57.455Z,17.22
2016-07-02T00:20:06.819Z,17.16
2016-07-02T00:20:17.464Z,17.18
2016-07-02T00:20:27.467Z,17.21
2016-07-02T00:20:37.475Z,17.28
2016-07-02T00:20:46.844Z,17.18
2016-07-02T00:20:57.484Z,17.18
2016-07-02T00:21:07.502Z,17.07
2016-07-02T00:21:17.497Z,17.18
2016-07-02T00:21:26.877Z,17.19
2016-07-02T00:21:37.503Z,17.21
2016-07-02T00:21:47.514Z,17.23
2016-07-02T00:21:57.519Z,17.14
2016-07-02T00:22:07.519Z,17.14
2016-07-02T00:22:17.528Z,17.11
2016-07-02T00:22:27.530Z,17.06
2016-07-02T00:22:37.538Z,17.11
2016-07-02T00:22:46.912Z,17.07
2016-07-02T00:22:57.553Z,17.07
2016-07-02T00:23:06.917Z,17.15
2016-07-02T00:23:17.561Z,17.11
2016-07-02T00:23:27.568Z,17.11
2016-07-02T00:23:36.934Z,17.12
2016-07-02T00:23:46.939Z,17.11
2016-07-02T00:23:57.583Z,17.07
2016-07-02T00:24:07.584Z,17.08
2016-07-02T00:24:17.594Z,17.06
2016-07-02T00:24:27.595Z,17.07
2016-07-02T00:24:37.604Z,17.16
2016-07-02T00:24:47.606Z,17.15
2016-07-02T00:24:56.977Z,17.07
2016-07-02T00:25:07.619Z,17.11
2016-07-02T00:25:17.622Z,17.15
2016-07-02T00:25:27.632Z,17.12
2016-07-02T00:25:36.997Z,17.11
2016-07-02T00:25:47.649Z,17.08
2016-07-02T00:25:57.651Z,17.08
2016-07-02T00:26:07.647Z,17.12
2016-07-02T00:26:17.018Z,17.08
2016-07-02T00:26:27.662Z,17.08
2016-07-02T00:26:37.666Z,17.04
2016-07-02T00:26:47.683Z,17.04
2016-07-02T00:26:57.675Z,17.07
2016-07-02T00:27:07.048Z,17.04
2016-07-02T00:27:17.053Z,17.08
2016-07-02T00:27:27.697Z,17.01
2016-07-02T00:27:37.705Z,17.07
2016-07-02T00:27:47.705Z,17.04
2016-07-02T00:27:57.713Z,17.08
2016-07-02T00:28:07.720Z,17.07
2016-07-02T00:28:17.717Z,17
2016-07-02T00:28:27.090Z,17.06
2016-07-02T00:28:37.734Z,17.03
2016-07-02T00:28:47.736Z,17.06
2016-07-02T00:28:57.105Z,17.03
2016-07-02T00:29:07.112Z,17.04
2016-07-02T00:29:17.755Z,17
2016-07-02T00:29:27.761Z,17.01
2016-07-02T00:29:37.122Z,16.97
2016-07-02T00:29:47.770Z,17.03
2016-07-02T00:29:57.775Z,16.97
2016-07-02T00:30:07.782Z,17.04
2016-07-02T00:30:17.147Z,17.04
2016-07-02T00:30:27.159Z,17.04
2016-07-02T00:30:37.798Z,17.03
2016-07-02T00:30:47.804Z,17.04
2016-07-02T00:30:57.810Z,17.03
2016-07-02T00:31:07.811Z,17.04
2016-07-02T00:31:17.821Z,17.01
2016-07-02T00:31:27.200Z,17.04
2016-07-02T00:31:37.827Z,17.04
2016-07-02T00:31:47.830Z,17.04
2016-07-02T00:31:57.839Z,16.98
2016-07-02T00:32:07.847Z,17.04
2016-07-02T00:32:17.848Z,17.03
2016-07-02T00:32:27.860Z,17.04
2016-07-02T00:32:37.858Z,17.04
2016-07-02T00:32:47.908Z,17.03
2016-07-02T00:32:57.236Z,17.01
2016-07-02T00:33:07.872Z,17
2016-07-02T00:33:17.884Z,16.97
2016-07-02T00:33:27.890Z,16.98
2016-07-02T00:33:37.889Z,17
2016-07-02T00:33:47.900Z,16.96
2016-07-02T00:33:57.272Z,16.97
2016-07-02T00:34:07.911Z,16.96
2016-07-02T00:34:17.914Z,16.98
2016-07-02T00:34:27.921Z,16.98
2016-07-02T00:34:37.285Z,16.93
2016-07-02T00:34:47.925Z,17.01
2016-07-02T00:34:57.933Z,16.96
2016-07-02T00:35:07.299Z,16.96
2016-07-02T00:35:17.945Z,16.97
2016-07-02T00:35:27.946Z,16.96
2016-07-02T00:35:37.962Z,17.01
2016-07-02T00:35:47.322Z,16.98
2016-07-02T00:35:57.962Z,17.04
2016-07-02T00:36:07.969Z,16.97
2016-07-02T00:36:17.980Z,17.03
2016-07-02T00:36:27.341Z,17
2016-07-02T00:36:37.349Z,17.01
2016-07-02T00:36:47.991Z,16.96
2016-07-02T00:36:57.996Z,17
2016-07-02T00:37:08.005Z,17
2016-07-02T00:37:17.372Z,17.01
2016-07-02T00:37:27.375Z,17
2016-07-02T00:37:37.382Z,17.04
2016-07-02T00:37:47.389Z,17.01
2016-07-02T00:37:57.396Z,16.97
2016-07-02T00:38:08.035Z,17.01
2016-07-02T00:38:17.408Z,16.98
2016-07-02T00:38:28.043Z,17.01
2016-07-02T00:38:37.414Z,17.04
2016-07-02T00:38:48.054Z,17.04
2016-07-02T00:38:58.063Z,16.98
2016-07-02T00:39:07.429Z,17.01
2016-07-02T00:39:18.067Z,17.01
2016-07-02T00:39:28.076Z,17
2016-07-02T00:39:38.086Z,16.97
2016-07-02T00:39:48.096Z,17.03
2016-07-02T00:39:58.099Z,16.98
2016-07-02T00:40:07.458Z,17.01
2016-07-02T00:40:18.102Z,16.94
2016-07-02T00:40:27.472Z,17
2016-07-02T00:40:38.117Z,16.96
2016-07-02T00:40:48.119Z,16.97
2016-07-02T00:40:58.126Z,16.97
2016-07-02T00:41:08.129Z,16.93
2016-07-02T00:41:17.501Z,16.96
2016-07-02T00:41:28.147Z,16.96
2016-07-02T00:41:37.517Z,16.96
2016-07-02T00:41:48.156Z,17
2016-07-02T00:41:58.161Z,16.98
2016-07-02T00:42:08.157Z,16.97
2016-07-02T00:42:18.182Z,16.98
2016-07-02T00:42:28.175Z,16.96
2016-07-02T00:42:37.551Z,16.97
2016-07-02T00:42:47.548Z,16.97
2016-07-02T00:42:58.190Z,16.97
2016-07-02T00:43:08.197Z,16.98
2016-07-02T00:43:18.201Z,16.91
2016-07-02T00:43:28.205Z,16.97
2016-07-02T00:43:37.573Z,16.97
2016-07-02T00:43:48.219Z,16.96
2016-07-02T00:43:58.219Z,17
2016-07-02T00:44:08.225Z,16.94
2016-07-02T00:44:18.229Z,17.04
2016-07-02T00:44:28.243Z,16.96
2016-07-02T00:44:37.609Z,17
2016-07-02T00:44:48.245Z,16.98
2016-07-02T00:44:57.617Z,17.01
2016-07-02T00:45:08.260Z,17.01
2016-07-02T00:45:18.266Z,17.03
2016-07-02T00:45:27.632Z,17.04
2016-07-02T00:45:38.273Z,16.96
2016-07-02T00:45:48.290Z,16.96
2016-07-02T00:45:57.651Z,16.96
2016-07-02T00:46:08.287Z,17.01
2016-07-02T00:46:17.660Z,17.01
2016-07-02T00:46:28.302Z,17
2016-07-02T00:46:37.664Z,17.01
2016-07-02T00:46:48.308Z,16.96
2016-07-02T00:46:58.318Z,16.97
2016-07-02T00:47:07.679Z,17
2016-07-02T00:47:18.328Z,16.94
2016-07-02T00:47:28.325Z,16.96
2016-07-02T00:47:38.332Z,16.96
2016-07-02T00:47:47.706Z,16.97
2016-07-02T00:47:57.707Z,16.96
2016-07-02T00:48:08.357Z,16.98
2016-07-02T00:48:17.723Z,16.96
2016-07-02T00:48:28.373Z,16.96
2016-07-02T00:48:38.369Z,16.97
2016-07-02T00:48:48.374Z,16.97
2016-07-02T00:48:58.383Z,16.98
2016-07-02T00:49:07.743Z,16.96
2016-07-02T00:49:18.392Z,16.96
2016-07-02T00:49:28.396Z,16.98
2016-07-02T00:49:38.403Z,16.94
2016-07-02T00:49:48.405Z,16.98
2016-07-02T00:49:57.780Z,16.96
2016-07-02T00:50:08.418Z,17.01
2016-07-02T00:50:18.426Z,16.93
2016-07-02T00:50:28.431Z,16.98
2016-07-02T00:50:38.433Z,16.98
2016-07-02T00:50:48.443Z,16.98
2016-07-02T00:50:58.446Z,16.97
2016-07-02T00:51:08.449Z,16.93
2016-07-02T00:51:17.832Z,16.96
2016-07-02T00:51:28.460Z,16.98
2016-07-02T00:51:38.466Z,16.96
2016-07-02T00:51:47.830Z,17.01
2016-07-02T00:51:58.472Z,16.98
2016-07-02T00:52:07.847Z,17
2016-07-02T00:52:18.487Z,16.89
2016-07-02T00:52:28.493Z,16.89
2016-07-02T00:52:37.864Z,16.93
2016-07-02T00:52:48.507Z,16.91
2016-07-02T00:52:58.508Z,16.85
2016-07-02T00:53:07.871Z,16.91
2016-07-02T00:53:17.884Z,16.86
2016-07-02T00:53:28.523Z,16.93
2016-07-02T00:53:37.889Z,16.93
2016-07-02T00:53:48.541Z,16.91
2016-07-02T00:53:58.538Z,16.91
2016-07-02T00:54:08.549Z,16.94
2016-07-02T00:54:18.551Z,16.94
2016-07-02T00:54:28.559Z,16.88
2016-07-02T00:54:37.922Z,16.96
2016-07-02T00:54:48.566Z,16.88
2016-07-02T00:54:58.575Z,16.85
2016-07-02T00:55:07.941Z,16.93
2016-07-02T00:55:18.591Z,16.88
2016-07-02T00:55:28.591Z,16.98
2016-07-02T00:55:38.596Z,16.89
2016-07-02T00:55:47.957Z,16.96
2016-07-02T00:55:58.601Z,16.93
2016-07-02T00:56:07.973Z,16.82
2016-07-02T00:56:17.977Z,16.93
2016-07-02T00:56:28.620Z,16.88
2016-07-02T00:56:38.623Z,16.93
2016-07-02T00:56:48.630Z,16.93
2016-07-02T00:56:58.636Z,16.85
2016-07-02T00:57:08.636Z,16.85
2016-07-02T00:57:18.641Z,16.94
2016-07-02T00:57:28.657Z,16.89
2016-07-02T00:57:38.653Z,16.85
2016-07-02T00:57:48.663Z,16.94
2016-07-02T00:57:58.034Z,16.94
2016-07-02T00:58:08.674Z,16.89
2016-07-02T00:58:18.681Z,16.93
2016-07-02T00:58:28.051Z,16.91
2016-07-02T00:58:38.050Z,16.89
2016-07-02T00:58:48.722Z,16.93
2016-07-02T00:58:58.065Z,16.83
2016-07-02T00:59:08.711Z,16.93
2016-07-02T00:59:18.078Z,16.94
2016-07-02T00:59:28.076Z,16.96
2016-07-02T00:59:38.718Z,16.96
2016-07-02T00:59:48.726Z,16.93
2016-07-02T00:59:58.735Z,16.96
2016-07-02T01:00:08.738Z,16.93
2016-07-02T01:00:18.745Z,16.89
2016-07-02T01:00:28.750Z,16.91
2016-07-02T01:00:38.758Z,16.96
2016-07-02T01:00:48.761Z,16.93
2016-07-02T01:00:58.126Z,16.94
2016-07-02T01:01:08.770Z,16.91
2016-07-02T01:01:18.775Z,16.91
2016-07-02T01:01:28.782Z,16.85
2016-07-02T01:01:38.790Z,16.91
2016-07-02T01:01:48.789Z,16.83
2016-07-02T01:01:58.795Z,16.82
2016-07-02T01:02:08.803Z,16.93
2016-07-02T01:02:18.808Z,16.86
2016-07-02T01:02:28.810Z,16.91
2016-07-02T01:02:38.820Z,16.86
2016-07-02T01:02:48.826Z,16.88
2016-07-02T01:02:58.826Z,16.93
2016-07-02T01:03:08.196Z,16.89
2016-07-02T01:03:18.200Z,16.93
2016-07-02T01:03:28.840Z,16.93
2016-07-02T01:03:38.851Z,16.98
2016-07-02T01:03:48.851Z,16.88
2016-07-02T01:03:58.221Z,16.88
2016-07-02T01:04:08.867Z,16.93
2016-07-02T01:04:18.871Z,16.88
2016-07-02T01:04:28.875Z,16.91
2016-07-02T01:04:38.244Z,16.86
2016-07-02T01:04:48.887Z,16.91
2016-07-02T01:04:58.905Z,16.88
2016-07-02T01:05:08.263Z,16.88
2016-07-02T01:05:18.903Z,16.89
2016-07-02T01:05:28.916Z,16.89
2016-07-02T01:05:38.276Z,16.94
2016-07-02T01:05:48.919Z,16.93
2016-07-02T01:05:58.922Z,16.89
2016-07-02T01:06:08.930Z,16.96
2016-07-02T01:06:18.939Z,16.82
2016-07-02T01:06:28.302Z,16.89
2016-07-02T01:06:38.945Z,16.86
2016-07-02T01:06:48.953Z,16.94
2016-07-02T01:06:58.958Z,16.93
2016-07-02T01:07:08.960Z,16.93
2016-07-02T01:07:18.967Z,16.96
2016-07-02T01:07:28.973Z,16.97
2016-07-02T01:07:38.976Z,16.88
2016-07-02T01:07:48.980Z,16.88
2016-07-02T01:07:58.986Z,16.97
2016-07-02T01:08:08.991Z,16.96
2016-07-02T01:08:18.362Z,16.93
2016-07-02T01:08:28.371Z,16.93
2016-07-02T01:08:39.011Z,16.88
2016-07-02T01:08:49.030Z,16.88
2016-07-02T01:08:59.020Z,16.93
2016-07-02T01:09:08.386Z,16.86
2016-07-02T01:09:19.027Z,16.91
2016-07-02T01:09:29.036Z,16.93
2016-07-02T01:09:39.036Z,16.88
2016-07-02T01:09:49.047Z,16.93
2016-07-02T01:09:59.053Z,16.94
2016-07-02T01:10:08.420Z,16.89
2016-07-02T01:10:19.059Z,16.94
2016-07-02T01:10:29.068Z,16.94
2016-07-02T01:10:39.074Z,16.89
2016-07-02T01:10:49.076Z,16.97
2016-07-02T01:10:59.079Z,16.86
2016-07-02T01:11:08.446Z,16.93
2016-07-02T01:11:19.094Z,16.97
2016-07-02T01:11:28.464Z,16.94
2016-07-02T01:11:39.103Z,16.91
2016-07-02T01:11:48.474Z,16.88
2016-07-02T01:11:59.117Z,16.81
2016-07-02T01:12:09.119Z,16.75
2016-07-02T01:12:19.120Z,16.76
2016-07-02T01:12:28.492Z,16.82
2016-07-02T01:12:39.138Z,16.79
2016-07-02T01:12:49.134Z,16.78
2016-07-02T01:12:58.505Z,16.79
2016-07-02T01:13:09.156Z,16.81
2016-07-02T01:13:18.516Z,16.82
2016-07-02T01:13:29.166Z,16.79
2016-07-02T01:13:38.530Z,16.86
2016-07-02T01:13:48.536Z,16.79
2016-07-02T01:13:59.179Z,16.78
2016-07-02T01:14:08.545Z,16.81
2016-07-02T01:14:19.190Z,16.88
2016-07-02T01:14:29.187Z,16.76
2016-07-02T01:14:39.199Z,16.79
2016-07-02T01:14:49.204Z,16.82
2016-07-02T01:14:59.209Z,16.86
2016-07-02T01:15:09.213Z,16.85
2016-07-02T01:15:19.219Z,16.79
2016-07-02T01:15:29.231Z,16.83
2016-07-02T01:15:39.231Z,16.86
2016-07-02T01:15:49.237Z,16.83
2016-07-02T01:15:59.241Z,16.75
2016-07-02T01:16:08.611Z,16.82
2016-07-02T01:16:19.255Z,16.82
2016-07-02T01:16:29.258Z,16.78
2016-07-02T01:16:38.628Z,16.83
2016-07-02T01:16:49.277Z,16.82
2016-07-02T01:16:59.275Z,16.79
2016-07-02T01:17:09.292Z,16.75
2016-07-02T01:17:19.284Z,16.83
2016-07-02T01:17:29.284Z,16.75
2016-07-02T01:17:39.291Z,16.78
2016-07-02T01:17:49.299Z,16.79
2016-07-02T01:17:58.668Z,16.82
2016-07-02T01:18:09.312Z,16.76
2016-07-02T01:18:19.314Z,16.79
2016-07-02T01:18:29.321Z,16.88
2016-07-02T01:18:39.321Z,16.79
2016-07-02T01:18:48.695Z,16.91
2016-07-02T01:18:59.335Z,16.79
2016-07-02T01:19:09.341Z,16.78
2016-07-02T01:19:19.349Z,16.83
2016-07-02T01:19:29.355Z,16.78
2016-07-02T01:19:39.359Z,16.75
2016-07-02T01:19:49.363Z,16.83
2016-07-02T01:19:59.369Z,16.78
2016-07-02T01:20:09.378Z,16.82
2016-07-02T01:20:18.746Z,16.88
2016-07-02T01:20:28.749Z,16.81
2016-07-02T01:20:39.391Z,16.78
2016-07-02T01:20:49.399Z,16.89
2016-07-02T01:20:58.767Z,16.82
2016-07-02T01:21:09.404Z,16.81
2016-07-02T01:21:18.778Z,16.81
2016-07-02T01:21:29.417Z,16.85
2016-07-02T01:21:39.420Z,16.88
2016-07-02T01:21:49.427Z,16.79
2016-07-02T01:21:58.792Z,16.73
2016-07-02T01:22:09.441Z,16.89
2016-07-02T01:22:19.449Z,16.81
2016-07-02T01:22:29.449Z,16.83
2016-07-02T01:22:39.457Z,16.76
2016-07-02T01:22:49.461Z,16.85
2016-07-02T01:22:59.462Z,16.78
2016-07-02T01:23:09.471Z,16.81
2016-07-02T01:23:19.476Z,16.81
2016-07-02T01:23:29.478Z,16.88
2016-07-02T01:23:39.481Z,16.91
2016-07-02T01:23:49.489Z,16.91
2016-07-02T01:23:58.859Z,16.88
2016-07-02T01:24:09.505Z,16.75
2016-07-02T01:24:19.515Z,16.79
2016-07-02T01:24:29.512Z,16.83
2016-07-02T01:24:39.522Z,16.85
2016-07-02T01:24:48.883Z,16.81
2016-07-02T01:24:59.536Z,16.85
2016-07-02T01:25:08.899Z,16.81
2016-07-02T01:25:19.541Z,16.81
2016-07-02T01:25:28.905Z,16.78
2016-07-02T01:25:39.548Z,16.83
2016-07-02T01:25:49.556Z,16.85
2016-07-02T01:25:59.561Z,16.82
2016-07-02T01:26:09.561Z,16.79
2016-07-02T01:26:19.570Z,16.82
2016-07-02T01:26:29.574Z,16.79
2016-07-02T01:26:38.947Z,16.78
2016-07-02T01:26:48.964Z,16.82
2016-07-02T01:26:59.596Z,16.83
2016-07-02T01:27:08.959Z,16.79
2016-07-02T01:27:19.605Z,16.75
2016-07-02T01:27:29.610Z,16.85
2016-07-02T01:27:39.612Z,16.78
2016-07-02T01:27:49.623Z,16.76
2016-07-02T01:27:59.621Z,16.76
2016-07-02T01:28:09.630Z,16.73
2016-07-02T01:28:19.637Z,16.7
2016-07-02T01:28:29.641Z,16.76
2016-07-02T01:28:39.003Z,16.78
2016-07-02T01:28:49.654Z,16.75
2016-07-02T01:28:59.653Z,16.73
2016-07-02T01:29:09.026Z,16.73
2016-07-02T01:29:19.670Z,16.73
2016-07-02T01:29:29.674Z,16.7
2016-07-02T01:29:39.677Z,16.63
2016-07-02T01:29:49.685Z,16.64
2016-07-02T01:29:59.684Z,16.66
2016-07-02T01:30:09.048Z,16.68
2016-07-02T01:30:19.696Z,16.75
2016-07-02T01:30:29.700Z,16.7
2016-07-02T01:30:39.706Z,16.63
2016-07-02T01:30:49.708Z,16.63
2016-07-02T01:30:59.717Z,16.66
2016-07-02T01:31:09.724Z,16.63
2016-07-02T01:31:19.734Z,16.66
2016-07-02T01:31:29.736Z,16.61
2016-07-02T01:31:39.739Z,16.66
2016-07-02T01:31:49.743Z,16.66
2016-07-02T01:31:59.746Z,16.63
2016-07-02T01:32:09.756Z,16.63
2016-07-02T01:32:19.760Z,16.61
2016-07-02T01:32:29.768Z,16.63
2016-07-02T01:32:39.770Z,16.63
2016-07-02T01:32:49.138Z,16.64
2016-07-02T01:32:59.147Z,16.64
2016-07-02T01:33:09.785Z,16.6
2016-07-02T01:33:19.795Z,16.66
2016-07-02T01:33:29.164Z,16.64
2016-07-02T01:33:39.800Z,16.66
2016-07-02T01:33:49.171Z,16.58
2016-07-02T01:33:59.817Z,16.63
2016-07-02T01:34:09.819Z,16.64
2016-07-02T01:34:19.192Z,16.66
2016-07-02T01:34:29.202Z,16.64
2016-07-02T01:34:39.831Z,16.56
2016-07-02T01:34:49.208Z,16.58
2016-07-02T01:34:59.846Z,16.58
2016-07-02T01:35:09.853Z,16.63
2016-07-02T01:35:19.862Z,16.6
2016-07-02T01:35:29.861Z,16.56
2016-07-02T01:35:39.870Z,16.6
2016-07-02T01:35:49.871Z,16.61
2016-07-02T01:35:59.881Z,16.57
2016-07-02T01:36:09.885Z,16.53
2016-07-02T01:36:19.892Z,16.56
2016-07-02T01:36:29.895Z,16.56
2016-07-02T01:36:39.906Z,16.56
2016-07-02T01:36:49.904Z,16.57
2016-07-02T01:36:59.913Z,16.53
2016-07-02T01:37:09.930Z,16.53
2016-07-02T01:37:19.917Z,16.6
2016-07-02T01:37:29.295Z,16.57
2016-07-02T01:37:39.929Z,16.53
2016-07-02T01:37:49.936Z,16.53
2016-07-02T01:37:59.944Z,16.57
2016-07-02T01:38:09.312Z,16.56
2016-07-02T01:38:19.955Z,16.56
2016-07-02T01:38:29.959Z,16.63
2016-07-02T01:38:39.968Z,16.6
2016-07-02T01:38:49.972Z,16.53
2016-07-02T01:38:59.974Z,16.56
2016-07-02T01:39:09.354Z,16.53
2016-07-02T01:39:19.990Z,16.5
2016-07-02T01:39:29.993Z,16.48
2016-07-02T01:39:39.360Z,16.57
2016-07-02T01:39:50.003Z,16.53
2016-07-02T01:40:00.004Z,16.57
2016-07-02T01:40:10.013Z,16.57
2016-07-02T01:40:20.025Z,16.57
2016-07-02T01:40:30.025Z,16.57
2016-07-02T01:40:40.032Z,16.53
2016-07-02T01:40:50.030Z,16.53
2016-07-02T01:40:59.406Z,16.52
2016-07-02T01:41:09.406Z,16.57
2016-07-02T01:41:20.048Z,16.53
2016-07-02T01:41:30.055Z,16.57
2016-07-02T01:41:40.060Z,16.5
2016-07-02T01:41:50.075Z,16.48
2016-07-02T01:42:00.068Z,16.49
2016-07-02T01:42:10.077Z,16.5
2016-07-02T01:42:20.083Z,16.49
2016-07-02T01:42:29.451Z,16.52
2016-07-02T01:42:40.094Z,16.53
2016-07-02T01:42:50.094Z,16.45
2016-07-02T01:42:59.465Z,16.52
2016-07-02T01:43:09.487Z,16.42
2016-07-02T01:43:19.473Z,16.42
2016-07-02T01:43:30.117Z,16.56
2016-07-02T01:43:40.124Z,16.45
2016-07-02T01:43:50.127Z,16.48
2016-07-02T01:44:00.134Z,16.46
2016-07-02T01:44:10.145Z,16.53
2016-07-02T01:44:20.139Z,16.46
2016-07-02T01:44:30.149Z,16.5
2016-07-02T01:44:40.152Z,16.42
2016-07-02T01:44:49.542Z,16.49
2016-07-02T01:44:59.534Z,16.46
2016-07-02T01:45:09.533Z,16.39
2016-07-02T01:45:20.176Z,16.38
2016-07-02T01:45:30.185Z,16.38
2016-07-02T01:45:40.189Z,16.42
2016-07-02T01:45:50.192Z,16.43
2016-07-02T01:45:59.564Z,16.35
2016-07-02T01:46:09.567Z,16.43
2016-07-02T01:46:20.213Z,16.43
2016-07-02T01:46:30.213Z,16.41
2016-07-02T01:46:39.582Z,16.42
2016-07-02T01:46:49.589Z,16.39
2016-07-02T01:46:59.602Z,16.41
2016-07-02T01:47:09.597Z,16.41
2016-07-02T01:47:20.238Z,16.39
2016-07-02T01:47:29.612Z,16.38
2016-07-02T01:47:39.612Z,16.34
2016-07-02T01:47:50.256Z,16.41
2016-07-02T01:47:59.626Z,16.41
2016-07-02T01:48:10.269Z,16.45
2016-07-02T01:48:20.279Z,16.27
2016-07-02T01:48:30.280Z,16.28
2016-07-02T01:48:39.646Z,16.33
2016-07-02T01:48:50.285Z,16.28
2016-07-02T01:49:00.296Z,16.34
2016-07-02T01:49:10.298Z,16.35
2016-07-02T01:49:20.300Z,16.25
2016-07-02T01:49:29.671Z,16.33
2016-07-02T01:49:40.314Z,16.27
2016-07-02T01:49:50.320Z,16.33
2016-07-02T01:50:00.321Z,16.27
2016-07-02T01:50:10.326Z,16.33
2016-07-02T01:50:20.336Z,16.27
2016-07-02T01:50:30.343Z,16.3
2016-07-02T01:50:39.711Z,16.3
2016-07-02T01:50:50.352Z,16.35
2016-07-02T01:51:00.357Z,16.34
2016-07-02T01:51:10.365Z,16.27
2016-07-02T01:51:19.728Z,16.3
2016-07-02T01:51:30.374Z,16.38
2016-07-02T01:51:40.380Z,16.27
2016-07-02T01:51:49.745Z,16.34
2016-07-02T01:52:00.388Z,16.39
2016-07-02T01:52:10.399Z,16.3
2016-07-02T01:52:19.760Z,16.34
2016-07-02T01:52:30.402Z,16.31
2016-07-02T01:52:40.409Z,16.25
2016-07-02T01:52:49.775Z,16.31
2016-07-02T01:53:00.424Z,16.31
2016-07-02T01:53:10.424Z,16.33
2016-07-02T01:53:19.794Z,16.31
2016-07-02T01:53:30.455Z,16.24
2016-07-02T01:53:40.436Z,16.31
2016-07-02T01:53:50.444Z,16.35
2016-07-02T01:54:00.453Z,16.3
2016-07-02T01:54:10.456Z,16.31
2016-07-02T01:54:19.834Z,16.27
2016-07-02T01:54:30.466Z,16.31
2016-07-02T01:54:40.472Z,16.25
2016-07-02T01:54:50.478Z,16.33
2016-07-02T01:54:59.848Z,16.38
2016-07-02T01:55:10.492Z,16.24
2016-07-02T01:55:20.497Z,16.27
2016-07-02T01:55:29.862Z,16.38
2016-07-02T01:55:40.507Z,16.34
2016-07-02T01:55:50.509Z,16.28
2016-07-02T01:56:00.513Z,16.27
2016-07-02T01:56:10.514Z,16.28
2016-07-02T01:56:20.524Z,16.23
2016-07-02T01:56:30.525Z,16.31
2016-07-02T01:56:40.530Z,16.27
2016-07-02T01:56:49.906Z,16.28
2016-07-02T01:57:00.550Z,16.3
2016-07-02T01:57:10.556Z,16.28
2016-07-02T01:57:19.930Z,16.25
2016-07-02T01:57:30.565Z,16.28
2016-07-02T01:57:40.570Z,16.27
2016-07-02T01:57:50.574Z,16.23
2016-07-02T01:57:59.940Z,16.3
2016-07-02T01:58:10.582Z,16.3
2016-07-02T01:58:20.596Z,16.28
2016-07-02T01:58:30.597Z,16.27
2016-07-02T01:58:40.603Z,16.31
2016-07-02T01:58:50.606Z,16.27
2016-07-02T01:59:00.607Z,16.3
2016-07-02T01:59:09.979Z,16.25
2016-07-02T01:59:20.623Z,16.28
2016-07-02T01:59:30.639Z,16.31
2016-07-02T01:59:39.994Z,16.25
2016-07-02T01:59:50.641Z,16.24
2016-07-02T02:00:00.639Z,16.28
2016-07-02T02:00:10.654Z,16.25
2016-07-02T02:00:20.654Z,16.25
2016-07-02T02:00:30.658Z,16.27
2016-07-02T02:00:40.659Z,16.28
2016-07-02T02:00:50.668Z,16.28
2016-07-02T02:01:00.670Z,16.28
2016-07-02T02:01:10.680Z,16.25
2016-07-02T02:01:20.690Z,16.24
2016-07-02T02:01:30.052Z,16.24
2016-07-02T02:01:40.700Z,16.28
2016-07-02T02:01:50.698Z,16.17
2016-07-02T02:02:00.707Z,16.23
2016-07-02T02:02:10.708Z,16.24
2016-07-02T02:02:20.085Z,16.23
2016-07-02T02:02:30.721Z,16.24
2016-07-02T02:02:40.727Z,16.23
2016-07-02T02:02:50.735Z,16.24
2016-07-02T02:03:00.736Z,16.27
2016-07-02T02:03:10.744Z,16.28
2016-07-02T02:03:20.747Z,16.31
2016-07-02T02:03:30.133Z,16.3
2016-07-02T02:03:40.761Z,16.28
2016-07-02T02:03:50.763Z,16.2
2016-07-02T02:04:00.768Z,16.25
2016-07-02T02:04:10.776Z,16.24
2016-07-02T02:04:20.776Z,16.25
2016-07-02T02:04:30.783Z,16.11
2016-07-02T02:04:40.788Z,16.12
2016-07-02T02:04:50.791Z,16.15
2016-07-02T02:05:00.804Z,16.15
2016-07-02T02:05:10.810Z,16.17
2016-07-02T02:05:20.817Z,16.11
2016-07-02T02:05:30.816Z,16.21
2016-07-02T02:05:40.821Z,16.15
2016-07-02T02:05:50.823Z,16.2
2016-07-02T02:06:00.832Z,16.08
2016-07-02T02:06:10.198Z,16.11
2016-07-02T02:06:20.837Z,16.2
2016-07-02T02:06:30.850Z,16.14
2016-07-02T02:06:40.850Z,16.05
2016-07-02T02:06:50.859Z,16.15
2016-07-02T02:07:00.860Z,16.17
2016-07-02T02:07:10.869Z,16.12
2016-07-02T02:07:20.877Z,16.21
2016-07-02T02:07:30.240Z,16.11
2016-07-02T02:07:40.248Z,16.21
2016-07-02T02:07:50.248Z,16.17
2016-07-02T02:08:00.887Z,16.12
2016-07-02T02:08:10.258Z,16.17
2016-07-02T02:08:20.904Z,16.11
2016-07-02T02:08:30.912Z,16.11
2016-07-02T02:08:40.914Z,16.09
2016-07-02T02:08:50.921Z,16.21
2016-07-02T02:09:00.292Z,16.09
2016-07-02T02:09:10.927Z,16.23
2016-07-02T02:09:20.937Z,16.12